createdAt,value
2022-08-03T00:02:36.309Z,85
2022-08-03T00:07:37.488Z,85
2022-08-03T00:12:39.607Z,87
2022-08-03T00:17:52.180Z,88
2022-08-03T00:22:42.733Z,88
2022-08-03T00:27:44.103Z,87
2022-08-03T00:32:46.251Z,86
2022-08-03T00:37:48.195Z,88
2022-08-03T00:42:50.279Z,87
2022-08-03T00:47:51.686Z,88
2022-08-03T00:52:53.570Z,88
2022-08-03T00:57:54.978Z,90
2022-08-03T01:02:56.374Z,89
2022-08-03T01:07:58.455Z,91
2022-08-03T01:13:00.071Z,91
2022-08-03T01:18:01.795Z,93
2022-08-03T01:23:03.840Z,93
2022-08-03T01:28:05.782Z,93
2022-08-03T01:33:07.262Z,96
2022-08-03T01:38:08.412Z,96
2022-08-03T01:43:09.823Z,94
2022-08-03T01:48:11.360Z,95
2022-08-03T01:53:12.898Z,99
2022-08-03T01:58:15.043Z,98
2022-08-03T02:03:17.021Z,99
2022-08-03T02:08:18.266Z,100
2022-08-03T02:13:19.904Z,100
2022-08-03T02:18:21.351Z,100
2022-08-03T02:23:23.276Z,100
2022-08-03T02:28:25.444Z,100
2022-08-03T02:33:27.533Z,100
2022-08-03T02:38:29.513Z,100
2022-08-03T02:43:39.155Z,100
2022-08-03T02:48:32.310Z,100
2022-08-03T02:53:33.834Z,100
2022-08-03T02:58:35.917Z,100
2022-08-03T03:03:39.963Z,100
2022-08-03T03:08:38.820Z,100
2022-08-03T03:13:40.505Z,100
2022-08-03T03:18:42.406Z,100
2022-08-03T03:23:44.318Z,100
2022-08-03T03:28:45.668Z,100
2022-08-03T03:33:47.372Z,100
2022-08-03T03:38:49.093Z,100
2022-08-03T03:43:57.751Z,100
2022-08-03T03:54:01.175Z,100
2022-08-03T03:59:02.631Z,100
2022-08-03T04:04:04.650Z,100
2022-08-03T04:09:06.807Z,100
2022-08-03T04:19:10.045Z,100
2022-08-03T04:24:11.443Z,100
2022-08-03T04:29:13.076Z,100
2022-08-03T04:34:15.175Z,100
2022-08-03T04:39:17.068Z,100
2022-08-03T04:49:20.324Z,100
2022-08-03T04:54:21.636Z,100
2022-08-03T04:59:23.069Z,100
2022-08-03T05:04:24.318Z,100
2022-08-03T05:09:50.302Z,100
2022-08-03T05:14:27.954Z,100
2022-08-03T05:19:29.303Z,100
2022-08-03T05:24:30.664Z,100
2022-08-03T05:29:40.664Z,100
2022-08-03T05:34:34.246Z,100
2022-08-03T05:39:36.246Z,100
2022-08-03T05:44:37.885Z,100
2022-08-03T05:49:39.553Z,100
2022-08-03T05:54:55.752Z,100
2022-08-03T05:59:53.739Z,100
2022-08-03T06:04:44.146Z,99
2022-08-03T06:09:56.648Z,97
2022-08-03T06:14:46.917Z,97
2022-08-03T06:19:48.414Z,92
2022-08-03T06:24:51.564Z,89
2022-08-03T06:29:51.514Z,86
2022-08-03T06:34:53.295Z,86
2022-08-03T06:39:55.030Z,80
2022-08-03T06:44:57.068Z,76
2022-08-03T06:50:13.108Z,74
2022-08-03T06:55:00.894Z,73
2022-08-03T07:00:06.673Z,71
2022-08-03T07:05:04.429Z,68
2022-08-03T07:10:06.363Z,66
2022-08-03T07:15:07.736Z,65
2022-08-03T07:20:09.574Z,62
2022-08-03T07:25:10.745Z,60
2022-08-03T07:30:12.587Z,60
2022-08-03T07:35:22.741Z,59
2022-08-03T07:40:15.653Z,56
2022-08-03T07:45:17.335Z,57
2022-08-03T07:50:18.965Z,52
2022-08-03T07:55:20.801Z,52
2022-08-03T08:00:22.039Z,51
2022-08-03T08:05:23.243Z,54
2022-08-03T08:10:24.729Z,48
2022-08-03T08:15:26.731Z,48
2022-08-03T08:20:30.886Z,46
2022-08-03T08:25:30.156Z,45
2022-08-03T08:30:31.404Z,45
2022-08-03T08:35:33.330Z,44
2022-08-03T08:40:35.157Z,43
2022-08-03T08:45:37.073Z,43
2022-08-03T08:50:38.343Z,42
2022-08-03T08:55:58.521Z,41
2022-08-03T09:00:42.225Z,41
2022-08-03T09:05:55.638Z,41
2022-08-03T09:10:45.532Z,38
2022-08-03T09:15:53.338Z,39
2022-08-03T09:20:48.847Z,38
2022-08-03T09:25:50.158Z,38
2022-08-03T09:30:51.838Z,39
2022-08-03T09:35:54.348Z,36
2022-08-03T09:40:59.405Z,37
2022-08-03T09:45:56.582Z,35
2022-08-03T09:51:12.685Z,36
2022-08-03T09:56:32.773Z,35
2022-08-03T10:01:02.795Z,35
2022-08-03T10:06:12.223Z,36
2022-08-03T10:11:05.599Z,35
2022-08-03T10:16:20.795Z,34
2022-08-03T10:21:09.173Z,33
2022-08-03T10:26:10.416Z,33
2022-08-03T10:31:12.169Z,35
2022-08-03T10:36:13.557Z,33
2022-08-03T10:41:15.726Z,34
2022-08-03T10:46:17.143Z,33
2022-08-03T10:51:18.328Z,32
2022-08-03T10:56:19.694Z,32
2022-08-03T11:01:21.967Z,32
2022-08-03T11:06:37.184Z,32
2022-08-03T11:11:26.141Z,31
2022-08-03T11:16:27.800Z,32
2022-08-03T11:21:30.474Z,33
2022-08-03T11:26:31.626Z,32
2022-08-03T11:31:49.104Z,32
2022-08-03T11:36:37.736Z,32
2022-08-03T11:41:42.837Z,32
2022-08-03T11:46:38.622Z,32
2022-08-03T11:51:40.352Z,31
2022-08-03T11:56:42.219Z,31
2022-08-03T12:01:44.367Z,31
2022-08-03T12:06:47.370Z,30
2022-08-03T12:11:50.846Z,30
2022-08-03T12:16:49.102Z,30
2022-08-03T12:21:57.027Z,30
2022-08-03T12:26:59.041Z,30
2022-08-03T12:31:53.876Z,30
2022-08-03T12:36:55.888Z,29
2022-08-03T12:41:57.373Z,28
2022-08-03T12:46:59.376Z,28
2022-08-03T12:52:04.042Z,29
2022-08-03T12:57:02.205Z,27
2022-08-03T13:02:04.417Z,28
2022-08-03T13:07:04.757Z,28
2022-08-03T13:12:08.136Z,29
2022-08-03T13:17:08.087Z,29
2022-08-03T13:22:09.931Z,29
2022-08-03T13:28:11.196Z,29
2022-08-03T13:32:13.032Z,29
2022-08-03T13:37:15.117Z,29
2022-08-03T13:42:17.083Z,29
2022-08-03T13:47:18.958Z,29
2022-08-03T13:52:21.103Z,29
2022-08-03T13:58:01.937Z,30
2022-08-03T14:02:24.492Z,30
2022-08-03T14:07:25.918Z,29
2022-08-03T14:12:27.301Z,29
2022-08-03T14:17:40.806Z,29
2022-08-03T14:22:31.348Z,29
2022-08-03T14:27:32.561Z,29
2022-08-03T14:32:33.938Z,29
2022-08-03T14:37:35.430Z,29
2022-08-03T14:42:37.246Z,28
2022-08-03T14:49:02.307Z,28
2022-08-03T14:52:40.742Z,28
2022-08-03T14:57:42.467Z,28
2022-08-03T15:02:44.591Z,28
2022-08-03T15:07:46.614Z,28
2022-08-03T15:12:48.697Z,28
2022-08-03T15:18:00.010Z,28
2022-08-03T15:22:52.040Z,28
2022-08-03T15:28:03.201Z,28
2022-08-03T15:32:56.038Z,28
2022-08-03T15:37:58.005Z,28
2022-08-03T15:42:59.452Z,28
2022-08-03T15:48:01.184Z,27
2022-08-03T15:53:02.374Z,28
2022-08-03T15:58:59.219Z,28
2022-08-03T16:03:05.154Z,28
2022-08-03T16:08:10.361Z,28
2022-08-03T16:13:09.046Z,29
2022-08-03T16:18:11.039Z,28
2022-08-03T16:23:12.654Z,28
2022-08-03T16:28:14.555Z,28
2022-08-03T16:33:17.154Z,28
2022-08-03T16:38:19.004Z,28
2022-08-03T16:43:19.183Z,28
2022-08-03T16:48:19.428Z,28
2022-08-03T16:53:33.447Z,28
2022-08-03T16:58:24.275Z,28
2022-08-03T17:03:25.230Z,29
2022-08-03T17:08:27.501Z,29
2022-08-03T17:13:39.001Z,29
2022-08-03T17:18:30.446Z,29
2022-08-03T17:23:34.258Z,29
2022-08-03T17:28:42.642Z,29
2022-08-03T17:33:35.822Z,29
2022-08-03T17:38:37.161Z,30
2022-08-03T17:43:44.107Z,30
2022-08-03T17:48:41.270Z,30
2022-08-03T17:53:41.925Z,30
2022-08-03T17:58:43.620Z,30
2022-08-03T18:03:58.192Z,30
2022-08-03T18:13:53.443Z,32
2022-08-03T18:18:49.470Z,32
2022-08-03T18:23:51.670Z,33
2022-08-03T18:44:07.474Z,34
2022-08-03T19:04:05.093Z,37
2022-08-03T19:14:08.666Z,38
2022-08-03T19:19:09.866Z,39
2022-08-03T19:24:11.373Z,38
2022-08-03T19:29:15.251Z,39
2022-08-03T19:34:14.735Z,39
2022-08-03T19:39:25.184Z,40
2022-08-03T19:44:19.770Z,41
2022-08-03T19:49:20.027Z,44
2022-08-03T19:54:25.318Z,41
2022-08-03T19:59:23.515Z,42
2022-08-03T20:04:25.422Z,42
2022-08-03T20:09:30.306Z,43
2022-08-03T20:14:44.226Z,43
2022-08-03T20:19:32.807Z,44
2022-08-03T20:24:31.846Z,44
2022-08-03T20:29:42.911Z,45
2022-08-03T20:34:41.531Z,46
2022-08-03T20:39:48.160Z,47
2022-08-03T20:44:44.505Z,47
2022-08-03T20:49:46.579Z,48
2022-08-03T20:54:58.064Z,49
2022-08-03T20:59:50.891Z,50
2022-08-03T21:04:51.070Z,50
2022-08-03T21:09:52.407Z,51
2022-08-03T21:14:53.967Z,50
2022-08-03T21:19:56.045Z,51
2022-08-03T21:24:57.410Z,52
2022-08-03T21:29:59.053Z,52
2022-08-03T21:35:00.879Z,53
2022-08-03T21:40:02.348Z,53
2022-08-03T21:45:04.155Z,53
2022-08-03T21:50:09.323Z,55
2022-08-03T21:55:07.509Z,56
2022-08-03T22:15:14.890Z,57
2022-08-03T22:20:16.682Z,57
2022-08-03T22:25:18.022Z,58
2022-08-03T22:30:19.317Z,59
2022-08-03T22:35:20.687Z,60
2022-08-03T22:40:22.320Z,61
2022-08-03T22:45:45.476Z,60
2022-08-03T22:50:30.831Z,64
2022-08-03T22:55:27.909Z,62
2022-08-03T23:00:29.490Z,61
2022-08-03T23:06:00.182Z,62
2022-08-03T23:10:32.292Z,62
2022-08-03T23:15:33.983Z,62
2022-08-03T23:20:36.008Z,63
2022-08-03T23:25:41.248Z,64
2022-08-03T23:30:38.919Z,64
2022-08-03T23:36:09.381Z,64
2022-08-03T23:40:42.224Z,66
2022-08-03T23:45:43.517Z,66
2022-08-03T23:50:45.261Z,67
2022-08-03T23:55:46.931Z,66
